TNCM/SXM METAR and TAF weather

Enter ICAO airport designator
Station Type Date Time Source
TNCM METAR 2020/03/31 10:00 UTC NOAA

TNCM 311000Z 06006KT 9999 FEW018 24/19 Q1014 NOSIG


Station Type Date Time Source
TNCM Decoded METAR 2020/03/31 10:00 UTC NOAA

Juliana Airport, Saint Maarten, Netherlands Antilles (TNCM) 18-03N 063-07W 9M
Mar 31, 2020 - 06:00 AM EDT / 2020.03.31 1000 UTC
Wind: from the ENE (060 degrees) at 7 MPH (6 KT):0
Visibility: greater than 7 mile(s):0
Sky conditions: mostly clear
Temperature: 75 F (24 C)
Dew Point: 66 F (19 C)
Relative Humidity: 73%
Pressure (altimeter): 29.94 in. Hg (1014 hPa)
ob: TNCM 311000Z 06006KT 9999 FEW018 24/19 Q1014 NOSIG
cycle: 10

Station Type Date Time Source
TNCM TAF 2020/03/31 06:48 UTC NOAA

TAF TNCM 310542Z 3106/0106 05008KT P6SM FEW020
FM311300 08012KT P6SM FEW018 SCT040
FM312200 06008KT P6SM FEW018 SCT040

Example: see airport list